Time;durP1;ratioP1;P1;durP2;ratioP2;P2;SDS_P1;SDS_P2;PMS_P1;PMS_P2;Temp;Humidity;BMP_temperature;BMP_pressure;BME280_temperature;BME280_humidity;BME280_pressure;Samples;Min_cycle;Max_cycle;Signal;HPM_P1;HPM_P2
2022/04/02 00:01:45;;;;;;;6.00;3.50;;;;;;;6.88;35.40;100172.25;10398510;28;20209;-84
2022/04/02 00:06:47;;;;;;;5.00;3.40;;;;;;;6.26;35.79;100177.97;10407057;28;20212;-84
2022/04/02 00:11:49;;;;;;;3.73;3.30;;;;;;;5.82;37.14;100171.28;10388444;28;20264;-84
2022/04/02 00:16:52;;;;;;;5.70;3.23;;;;;;;6.74;35.47;100174.38;10409881;28;20346;-86
2022/04/02 00:21:54;;;;;;;5.10;3.20;;;;;;;6.20;36.29;100170.84;10394146;28;20250;-83
2022/04/02 00:26:56;;;;;;;4.10;2.53;;;;;;;5.09;38.61;100178.13;10398830;28;20238;-85
2022/04/02 00:32:00;;;;;;;7.03;2.63;;;;;;;6.35;35.65;100169.59;10394026;28;20196;-83
2022/04/02 00:37:02;;;;;;;3.90;2.20;;;;;;;6.37;35.06;100176.53;10421328;28;20196;-83
2022/04/02 00:42:05;;;;;;;3.87;2.40;;;;;;;6.72;34.83;100171.03;10407559;28;20205;-83
2022/04/02 00:47:07;;;;;;;6.00;2.67;;;;;;;6.61;35.01;100172.47;10421866;28;20209;-84
2022/04/02 00:52:09;;;;;;;3.30;2.07;;;;;;;6.72;34.63;100160.66;10385672;28;20209;-85
2022/04/02 00:57:11;;;;;;;6.83;2.47;;;;;;;7.18;34.27;100157.25;10422661;28;20197;-82
2022/04/02 01:02:14;;;;;;;2.57;2.23;;;;;;;7.01;35.03;100167.66;10386708;28;20506;-85
2022/04/02 01:07:17;;;;;;;4.63;2.70;;;;;;;6.98;35.17;100171.16;10388086;28;20294;-83
2022/04/02 01:12:24;;;;;;;6.73;2.57;;;;;;;7.34;34.03;100176.47;10390454;28;20679;-83
2022/04/02 01:17:27;;;;;;;2.93;2.50;;;;;;;7.16;34.45;100179.25;10404396;28;20212;-85
2022/04/02 01:22:30;;;;;;;3.63;2.63;;;;;;;6.97;33.86;100184.38;10383767;28;20263;-83
2022/04/02 01:27:37;;;;;;;2.80;2.40;;;;;;;6.34;35.88;100188.41;10404276;28;20274;-85
2022/04/02 01:32:39;;;;;;;4.83;2.40;;;;;;;5.59;36.94;100194.88;10393109;28;20200;-83
2022/04/02 01:37:45;;;;;;;2.90;2.00;;;;;;;6.84;34.73;100180.53;10403578;28;20204;-82
2022/04/02 01:42:50;;;;;;;3.33;1.97;;;;;;;6.97;34.36;100189.16;10392406;28;20204;-82
2022/04/02 01:47:54;;;;;;;2.13;1.80;;;;;;;6.45;34.79;100184.19;10402769;28;20232;-82
2022/04/02 01:53:03;;;;;;;2.53;1.80;;;;;;;6.12;35.56;100191.28;10390780;28;20465;-82
2022/04/02 01:58:06;;;;;;;5.97;2.00;;;;;;;5.87;34.92;100189.16;10402364;28;20201;-82
2022/04/02 02:03:15;;;;;;;2.10;1.53;;;;;;;6.41;34.90;100191.59;10387062;28;20208;-81
2022/04/02 02:08:18;;;;;;;2.80;1.23;;;;;;;6.91;33.10;100202.53;10387713;28;20632;-82
2022/04/02 02:13:34;;;;;;;2.63;1.40;;;;;;;6.51;33.20;100198.91;10392468;28;20223;-81
2022/04/02 02:18:41;;;;;;;2.43;1.13;;;;;;;6.17;34.10;100199.56;10418672;28;20220;-82
2022/04/02 02:23:43;;;;;;;2.03;1.77;;;;;;;5.97;34.22;100200.09;10392697;28;20243;-82
2022/04/02 02:28:48;;;;;;;3.10;1.20;;;;;;;6.30;34.12;100198.66;10394141;28;20302;-82
2022/04/02 02:39:34;;;;;;;2.70;0.93;;;;;;;5.85;34.66;100208.28;10379097;28;20335;-82
2022/04/02 02:44:48;;;;;;;1.33;0.93;;;;;;;5.29;35.13;100204.03;10378920;28;20495;-81
2022/04/02 02:49:55;;;;;;;1.50;1.40;;;;;;;5.27;34.58;100211.91;10357868;28;20271;-81
2022/04/02 02:55:03;;;;;;;2.63;1.00;;;;;;;5.97;34.13;100211.31;10373492;28;20204;-88
2022/04/02 03:00:07;;;;;;;2.40;1.10;;;;;;;6.70;33.60;100215.50;10400795;28;20544;-87
2022/04/02 03:05:14;;;;;;;1.27;0.97;;;;;;;4.89;35.41;100220.63;10373432;28;20614;-89
2022/04/02 03:10:25;;;;;;;1.93;0.83;;;;;;;5.72;34.13;100215.59;10375856;28;20295;-90
2022/04/02 03:15:27;;;;;;;3.23;0.80;;;;;;;4.73;35.64;100216.47;10365016;28;20281;-86
2022/04/02 03:20:31;;;;;;;2.80;1.40;;;;;;;5.15;34.50;100231.25;10379335;28;20200;-84
2022/04/02 03:25:34;;;;;;;4.00;1.40;;;;;;;5.75;33.96;100235.44;10400484;28;20266;-86
2022/04/02 03:30:38;;;;;;;3.67;1.80;;;;;;;5.00;35.06;100236.06;10369586;28;20707;-88
2022/04/02 03:35:42;;;;;;;3.87;1.60;;;;;;;4.86;34.73;100242.81;10375585;28;20259;-89
2022/04/02 03:40:44;;;;;;;2.73;1.63;;;;;;;4.79;34.72;100243.22;10363860;28;20209;-89
2022/04/02 03:45:47;;;;;;;3.50;1.60;;;;;;;5.36;33.99;100230.47;10378639;28;20201;-86
2022/04/02 03:50:50;;;;;;;3.13;1.13;;;;;;;5.88;32.97;100252.53;10349413;28;20268;-86
2022/04/02 03:55:56;;;;;;;2.23;1.37;;;;;;;4.83;35.03;100251.84;10363849;28;20213;-90
2022/04/02 04:01:08;;;;;;;1.67;1.10;;;;;;;5.02;34.94;100249.75;10359714;28;20229;-89
2022/04/02 04:06:11;;;;;;;2.53;1.00;;;;;;;5.39;33.43;100251.44;10369195;28;20507;-80
2022/04/02 04:11:16;;;;;;;4.90;1.30;;;;;;;5.15;34.64;100265.72;10359759;28;20287;-81
2022/04/02 04:16:21;;;;;;;3.63;1.70;;;;;;;3.87;35.42;100276.81;10371065;28;20561;-82
2022/04/02 04:21:24;;;;;;;2.47;1.10;;;;;;;4.67;34.53;100285.75;10377862;28;20550;-81
2022/04/02 04:26:29;;;;;;;4.13;1.20;;;;;;;4.81;34.80;100274.53;10384038;28;20213;-81
2022/04/02 04:31:32;;;;;;;2.60;0.87;;;;;;;3.65;36.39;100281.06;10363069;28;20225;-81
2022/04/02 04:36:34;;;;;;;2.40;0.90;;;;;;;4.53;35.28;100289.66;10365827;28;20205;-81
2022/04/02 04:41:38;;;;;;;2.20;1.10;;;;;;;4.41;34.42;100296.56;10363008;28;20571;-81
2022/04/02 04:46:43;;;;;;;1.83;1.13;;;;;;;4.78;34.13;100297.56;10367539;28;20605;-81
2022/04/02 04:51:49;;;;;;;1.73;1.07;;;;;;;4.92;34.19;100303.19;10364230;28;20201;-82
2022/04/02 04:56:52;;;;;;;2.40;1.20;;;;;;;4.67;34.21;100324.13;10382697;28;20252;-81
2022/04/02 05:01:58;;;;;;;1.63;1.30;;;;;;;5.15;34.38;100321.78;10385621;28;20498;-81
2022/04/02 05:07:01;;;;;;;2.63;1.67;;;;;;;4.39;34.45;100329.63;10370965;28;20220;-81
2022/04/02 05:12:04;;;;;;;2.80;1.27;;;;;;;5.33;33.66;100322.78;10346894;28;20277;-81
2022/04/02 05:17:10;;;;;;;3.67;1.10;;;;;;;4.44;35.40;100336.28;10357983;28;20221;-82
2022/04/02 05:22:12;;;;;;;1.27;1.17;;;;;;;5.30;34.29;100334.59;10362913;28;20205;-82
2022/04/02 05:27:21;;;;;;;2.40;1.20;;;;;;;4.08;34.85;100339.69;10377292;28;20244;-82
2022/04/02 05:32:23;;;;;;;2.10;0.93;;;;;;;5.11;33.74;100341.16;10368424;28;20691;-81
2022/04/02 05:37:26;;;;;;;2.10;1.37;;;;;;;4.89;33.22;100349.47;10361653;28;20209;-86
2022/04/02 05:42:28;;;;;;;0.97;0.97;;;;;;;5.71;32.77;100349.41;10380836;28;20266;-81
2022/04/02 05:47:49;;;;;;;1.90;1.37;;;;;;;4.54;34.53;100352.91;10400670;28;20270;-82
2022/04/02 05:52:52;;;;;;;3.10;1.13;;;;;;;5.46;32.91;100363.97;10379013;28;20586;-82
2022/04/02 05:57:54;;;;;;;1.63;1.43;;;;;;;5.79;32.87;100368.31;10384806;28;20216;-82
2022/04/02 06:02:57;;;;;;;1.47;1.10;;;;;;;5.00;32.66;100378.94;10400314;28;20200;-82
2022/04/02 06:07:59;;;;;;;3.57;1.23;;;;;;;5.30;32.92;100382.25;10402430;28;20269;-82
2022/04/02 06:13:02;;;;;;;2.77;1.17;;;;;;;5.64;32.68;100384.63;10376564;28;20650;-82
2022/04/02 06:18:04;;;;;;;3.77;1.47;;;;;;;5.00;34.11;100394.94;10409938;28;20228;-82
2022/04/02 06:23:06;;;;;;;2.20;1.10;;;;;;;5.11;32.95;100400.03;10383848;28;20201;-81
2022/04/02 06:28:09;;;;;;;1.77;1.00;;;;;;;5.73;32.54;100400.44;10388547;28;20259;-82
2022/04/02 06:33:11;;;;;;;1.73;1.40;;;;;;;4.95;33.96;100407.03;10371864;28;20251;-81
2022/04/02 06:38:14;;;;;;;2.50;1.20;;;;;;;4.76;34.25;100423.09;10390381;28;20205;-81
2022/04/02 06:43:16;;;;;;;2.97;1.27;;;;;;;5.58;32.86;100423.16;10372830;28;20224;-82
2022/04/02 06:48:27;;;;;;;1.67;1.20;;;;;;;4.75;33.94;100438.25;10374167;28;20283;-81
2022/04/02 06:53:29;;;;;;;4.87;1.07;;;;;;;4.07;34.58;100437.91;10364847;28;20283;-83
2022/04/02 06:58:34;;;;;;;1.80;1.23;;;;;;;4.79;34.66;100444.03;10365792;28;20209;-82
2022/04/02 07:03:37;;;;;;;3.00;1.30;;;;;;;5.19;33.95;100443.28;10362521;28;20272;-82
2022/04/02 07:08:39;;;;;;;3.37;1.57;;;;;;;4.65;33.98;100452.41;10363282;28;20216;-82
2022/04/02 07:13:41;;;;;;;1.57;1.47;;;;;;;5.15;34.22;100461.06;10349182;28;20233;-82
2022/04/02 07:18:46;;;;;;;2.80;1.27;;;;;;;4.63;34.70;100460.28;10362542;28;20361;-82
2022/04/02 07:23:48;;;;;;;1.77;1.20;;;;;;;5.11;33.29;100463.63;10363873;28;20267;-81
2022/04/02 07:28:51;;;;;;;2.93;1.23;;;;;;;6.08;32.85;100459.69;10379867;28;20229;-81
2022/04/02 07:33:53;;;;;;;4.33;1.40;;;;;;;5.10;34.15;100471.22;10387724;28;20205;-82
2022/04/02 07:39:22;;;;;;;1.07;0.97;;;;;;;5.71;32.98;100478.44;10346561;28;20256;-83
2022/04/02 07:44:37;;;;;;;2.37;1.20;;;;;;;4.83;34.36;100482.34;10372408;28;20206;-88
2022/04/02 07:49:45;;;;;;;1.20;1.10;;;;;;;5.66;33.35;100484.19;10367619;28;20554;-87
2022/04/02 07:54:48;;;;;;;2.30;1.20;;;;;;;5.19;34.41;100499.34;10378093;28;20664;-87
2022/04/02 07:59:58;;;;;;;1.40;1.03;;;;;;;5.39;32.63;100489.75;10404282;28;20204;-85
2022/04/02 08:05:10;;;;;;;3.27;1.17;;;;;;;5.87;32.92;100504.22;10396147;28;20197;-89
2022/04/02 08:10:14;;;;;;;3.53;1.50;;;;;;;6.38;32.02;100503.09;10367047;28;20229;-88
2022/04/02 08:15:38;;;;;;;3.07;1.30;;;;;;;5.93;32.57;100502.16;10382333;28;20298;-87
2022/04/02 08:20:50;;;;;;;2.20;1.70;;;;;;;6.38;32.20;100509.53;10354598;28;20209;-87
2022/04/02 08:26:34;;;;;;;2.50;1.33;;;;;;;5.57;33.27;100514.03;10369425;28;20217;-87
2022/04/02 08:31:56;;;;;;;2.53;1.40;;;;;;;6.47;31.77;100512.41;10391863;28;20248;-83
2022/04/02 08:37:21;;;;;;;4.33;1.87;;;;;;;5.46;33.50;100521.81;10383641;28;20205;-88
2022/04/02 08:42:33;;;;;;;4.20;1.77;;;;;;;4.88;33.75;100527.09;10402378;28;20193;-87
2022/04/02 08:48:14;;;;;;;3.60;1.30;;;;;;;6.01;31.75;100532.28;10389209;28;20269;-89
2022/04/02 08:53:22;;;;;;;1.87;1.20;;;;;;;6.67;32.41;100522.34;10384061;28;20209;-89
2022/04/02 08:58:48;;;;;;;3.00;1.60;;;;;;;5.66;34.20;100533.84;10385889;28;20252;-88
2022/04/02 09:03:56;;;;;;;1.43;1.33;;;;;;;6.11;32.46;100543.28;10351892;28;20212;-87
2022/04/02 09:09:32;;;;;;;2.20;1.40;;;;;;;6.34;31.78;100552.59;10384930;28;20217;-86
2022/04/02 09:15:08;;;;;;;2.97;1.30;;;;;;;4.82;33.18;100558.28;10380397;28;20638;-87
2022/04/02 09:20:22;;;;;;;2.17;1.80;;;;;;;6.05;32.18;100558.56;10374368;28;20561;-84
2022/04/02 09:26:05;;;;;;;4.73;1.57;;;;;;;5.57;32.17;100560.88;10377496;28;20213;-89
2022/04/02 09:31:29;;;;;;;1.53;1.40;;;;;;;5.69;31.29;100570.50;10351876;28;20361;-85
2022/04/02 09:36:50;;;;;;;2.80;1.33;;;;;;;5.58;31.69;100563.38;10371834;28;20673;-88
2022/04/02 09:41:59;;;;;;;1.93;1.43;;;;;;;6.24;30.28;100559.28;10374281;28;20197;-89
2022/04/02 09:47:11;;;;;;;2.33;1.77;;;;;;;6.90;30.37;100560.59;10383132;28;20197;-86
2022/04/02 09:52:18;;;;;;;2.77;1.37;;;;;;;7.38;28.77;100568.38;10376219;28;20221;-88
2022/04/02 09:57:39;;;;;;;2.00;1.73;;;;;;;7.22;28.61;100574.41;10379595;28;20201;-85
2022/04/02 10:03:06;;;;;;;2.27;1.53;;;;;;;6.27;29.86;100589.53;10376156;28;20209;-86
2022/04/02 10:08:20;;;;;;;2.13;1.80;;;;;;;7.34;28.32;100587.06;10377539;28;20655;-87
2022/04/02 10:13:22;;;;;;;2.77;1.80;;;;;;;6.41;30.62;100587.53;10363928;28;20271;-88
2022/04/02 10:18:26;;;;;;;1.70;1.53;;;;;;;6.86;30.03;100596.09;10363078;28;20229;-86
2022/04/02 10:23:29;;;;;;;3.60;2.00;;;;;;;6.38;31.65;100593.78;10360822;28;20324;-86
2022/04/02 10:28:40;;;;;;;4.10;2.03;;;;;;;6.16;31.30;100586.13;10357876;28;20270;-87
2022/04/02 10:33:44;;;;;;;2.57;1.70;;;;;;;7.22;30.85;100594.09;10363235;28;20216;-88
2022/04/02 10:38:48;;;;;;;2.93;1.40;;;;;;;7.05;29.30;100596.78;10356386;28;20598;-88
2022/04/02 10:43:54;;;;;;;3.50;2.07;;;;;;;7.81;29.49;100594.81;10367039;28;20475;-89
2022/04/02 10:49:00;;;;;;;1.40;1.30;;;;;;;7.44;28.46;100593.25;10367778;28;20233;-89
2022/04/02 10:54:07;;;;;;;2.10;1.63;;;;;;;8.37;27.51;100604.47;10364633;28;20201;-87
2022/04/02 10:59:11;;;;;;;1.87;1.70;;;;;;;8.10;28.98;100599.09;10371739;28;20197;-88
2022/04/02 11:04:32;;;;;;;2.07;1.87;;;;;;;7.00;30.19;100599.69;10373222;28;20205;-87
2022/04/02 11:09:41;;;;;;;2.30;1.73;;;;;;;6.96;31.11;100601.50;10373492;28;20224;-88
2022/04/02 11:14:46;;;;;;;1.87;1.77;;;;;;;6.85;31.46;100606.50;10366839;28;20378;-88
2022/04/02 11:19:54;;;;;;;3.87;2.00;;;;;;;6.90;32.38;100605.56;10369174;28;20256;-87
2022/04/02 11:25:14;;;;;;;3.10;1.93;;;;;;;6.60;32.17;100617.47;10379323;28;20243;-86
2022/04/02 11:30:18;;;;;;;3.93;2.17;;;;;;;6.88;31.14;100608.69;10401865;28;20255;-88
2022/04/02 11:35:24;;;;;;;2.80;2.00;;;;;;;6.01;32.90;100616.47;10395076;28;20228;-87
2022/04/02 11:40:28;;;;;;;3.63;2.03;;;;;;;6.12;34.66;100634.75;10379761;28;20259;-86
2022/04/02 11:45:32;;;;;;;2.70;2.50;;;;;;;7.70;31.74;100623.53;10382101;28;20216;-90
2022/04/02 11:50:43;;;;;;;3.00;2.13;;;;;;;7.37;31.99;100632.22;10381856;28;20703;-88
2022/04/02 11:55:45;;;;;;;3.00;2.57;;;;;;;7.83;31.46;100629.09;10386371;28;20263;-90
2022/04/02 12:00:56;;;;;;;2.73;2.40;;;;;;;7.51;31.02;100627.38;10390349;28;20259;-88
2022/04/02 12:06:09;;;;;;;3.37;2.50;;;;;;;6.93;32.13;100644.28;10373259;28;20205;-89
2022/04/02 12:11:23;;;;;;;5.63;2.27;;;;;;;7.08;31.22;100629.88;10376244;28;20252;-86
2022/04/02 12:16:27;;;;;;;2.50;2.13;;;;;;;7.79;30.76;100630.88;10354715;28;20237;-82
2022/04/02 12:21:33;;;;;;;2.30;1.97;;;;;;;7.68;30.33;100632.28;10355578;28;20263;-83
2022/04/02 12:26:36;;;;;;;2.20;1.97;;;;;;;7.27;30.67;100637.28;10316799;28;20210;-86
2022/04/02 12:31:49;;;;;;;2.13;2.03;;;;;;;6.97;31.13;100644.50;10339099;28;20779;-87
2022/04/02 12:37:01;;;;;;;3.00;2.40;;;;;;;7.95;29.60;100637.78;10362632;28;20259;-88
2022/04/02 12:42:03;;;;;;;2.83;2.10;;;;;;;8.61;29.75;100638.69;10367754;28;20202;-88
2022/04/02 12:47:10;;;;;;;2.10;1.90;;;;;;;7.41;30.89;100638.06;10338593;28;20566;-90
2022/04/02 12:52:16;;;;;;;2.10;1.90;;;;;;;6.61;31.57;100650.84;10326498;28;20574;-84
2022/04/02 12:57:19;;;;;;;4.50;2.13;;;;;;;7.84;29.60;100653.28;10376279;28;20251;-85
2022/04/02 13:02:22;;;;;;;3.03;1.73;;;;;;;6.95;31.08;100658.03;10351089;28;20326;-89
2022/04/02 13:07:25;;;;;;;2.63;2.00;;;;;;;8.04;29.14;100645.41;10360889;28;20197;-85
2022/04/02 13:12:27;;;;;;;3.00;2.37;;;;;;;8.97;28.59;100646.06;10365404;28;20689;-87
2022/04/02 13:20:28;;;;;;;3.13;2.20;;;;;;;7.03;30.63;100649.66;10361280;28;20633;-85
2022/04/02 13:23:07;;;;;;;3.40;2.50;;;;;;;9.44;28.34;100634.97;10369378;28;20197;-87
2022/04/02 13:28:39;;;;;;;2.10;1.97;;;;;;;9.22;27.61;100642.44;10373173;28;20212;-84
2022/04/02 13:33:41;;;;;;;3.90;2.40;;;;;;;9.88;27.45;100628.91;10374776;28;21110;-83
2022/04/02 13:38:55;;;;;;;2.80;2.10;;;;;;;9.43;27.01;100638.94;10371229;28;20202;-88
2022/04/02 13:44:04;;;;;;;2.50;1.57;;;;;;;7.76;29.83;100651.22;10374244;28;20197;-89
2022/04/02 13:49:08;;;;;;;4.43;2.03;;;;;;;8.73;28.52;100642.88;10387359;28;20204;-84
2022/04/02 13:54:46;;;;;;;2.67;1.97;;;;;;;8.26;27.90;100639.75;10377415;28;20201;-90
2022/04/02 14:00:09;;;;;;;2.93;2.20;;;;;;;8.75;27.90;100632.13;10384869;28;20275;-89
2022/04/02 14:05:26;;;;;;;3.03;2.13;;;;;;;9.59;26.32;100623.16;10405123;28;20556;-90
2022/04/02 14:10:39;;;;;;;3.67;1.93;;;;;;;9.66;25.11;100624.34;10382529;28;20217;-91
2022/04/02 14:15:52;;;;;;;2.13;1.93;;;;;;;9.87;25.96;100615.97;10397352;28;20255;-89
2022/04/02 14:21:04;;;;;;;3.03;1.80;;;;;;;10.08;25.49;100614.06;10411752;28;20192;-90
2022/04/02 14:26:26;;;;;;;2.43;1.40;;;;;;;9.04;25.33;100629.50;10395337;28;20213;-93
2022/04/02 14:32:18;;;;;;;1.20;1.10;;;;;;;9.45;23.57;100605.56;10388087;28;20286;-87
2022/04/02 14:38:01;;;;;;;0.83;0.83;;;;;;;9.51;24.53;100604.22;10357921;28;20267;-91
2022/04/02 14:43:13;;;;;;;2.20;1.20;;;;;;;9.10;24.43;100614.06;10378955;28;20197;-90
2022/04/02 14:48:57;;;;;;;1.47;1.33;;;;;;;9.99;22.81;100601.97;10388637;28;20232;-91
2022/04/02 14:54:41;;;;;;;1.10;0.90;;;;;;;8.96;22.88;100610.56;10386618;28;20216;-91
2022/04/02 15:00:05;;;;;;;0.60;0.60;;;;;;;9.32;23.13;100613.88;10391277;28;20220;-90
2022/04/02 15:05:37;;;;;;;1.03;0.70;;;;;;;9.55;24.93;100613.69;10370974;28;20270;-88
2022/04/02 15:10:46;;;;;;;0.83;0.73;;;;;;;8.97;23.46;100612.22;10356728;28;20294;-87
2022/04/02 15:15:49;;;;;;;0.83;0.70;;;;;;;7.85;24.43;100618.34;10407857;28;20232;-90
2022/04/02 15:21:05;;;;;;;2.70;0.77;;;;;;;8.30;24.09;100626.66;10384983;28;20193;-94
2022/04/02 15:26:15;;;;;;;0.90;0.60;;;;;;;9.31;22.35;100617.84;10391296;28;20282;-88
2022/04/02 15:31:31;;;;;;;1.23;0.70;;;;;;;9.09;22.44;100626.50;10393352;28;20200;-87
2022/04/02 15:36:34;;;;;;;0.83;0.80;;;;;;;8.70;22.16;100624.63;10415486;28;20228;-83
2022/04/02 15:41:55;;;;;;;0.90;0.57;;;;;;;9.35;21.62;100630.13;10408541;28;20212;-88
2022/04/02 15:46:57;;;;;;;1.57;0.80;;;;;;;8.27;23.47;100644.22;10385778;28;20251;-90
2022/04/02 15:51:59;;;;;;;1.23;0.67;;;;;;;8.80;22.07;100643.22;10403708;28;20283;-84
2022/04/02 15:57:04;;;;;;;0.83;0.70;;;;;;;8.59;21.97;100649.44;10383093;28;20692;-82
2022/04/02 16:02:36;;;;;;;0.60;0.50;;;;;;;7.68;21.83;100660.44;10371345;28;20657;-86
2022/04/02 16:07:38;;;;;;;0.60;0.50;;;;;;;8.44;22.33;100655.53;10359614;28;20221;-83
2022/04/02 16:12:42;;;;;;;0.93;0.30;;;;;;;10.31;19.43;100644.88;10376145;28;20280;-89
2022/04/02 16:18:13;;;;;;;0.53;0.40;;;;;;;10.28;20.64;100651.22;10362440;28;20291;-83
2022/04/02 16:23:17;;;;;;;0.60;0.60;;;;;;;7.66;22.71;100662.72;10375134;28;20205;-83
2022/04/02 16:28:23;;;;;;;0.90;0.70;;;;;;;8.15;21.77;100666.50;10343721;28;20241;-83
2022/04/02 16:33:27;;;;;;;1.57;0.67;;;;;;;7.89;21.96;100670.03;10369379;28;20252;-84
2022/04/02 16:38:51;;;;;;;0.93;0.40;;;;;;;9.06;19.73;100672.28;10370769;28;20209;-84
2022/04/02 16:44:21;;;;;;;0.73;0.47;;;;;;;8.84;21.81;100683.69;10373067;28;20260;-82
2022/04/02 16:49:24;;;;;;;1.23;1.10;;;;;;;8.50;22.85;100696.50;10360558;28;20286;-84
2022/04/02 16:54:26;;;;;;;2.40;0.83;;;;;;;8.27;23.37;100697.75;10355136;28;20221;-83
2022/04/02 16:59:36;;;;;;;1.93;1.10;;;;;;;8.52;23.38;100699.84;10375685;28;20388;-84
2022/04/02 17:04:38;;;;;;;0.83;0.70;;;;;;;7.39;24.80;100719.13;10360589;28;20237;-83
2022/04/02 17:09:46;;;;;;;2.03;0.73;;;;;;;8.13;24.01;100708.28;10354948;28;20236;-83
2022/04/02 17:14:49;;;;;;;1.80;0.90;;;;;;;9.03;22.45;100709.63;10341036;28;20228;-83
2022/04/02 17:19:58;;;;;;;1.03;0.70;;;;;;;8.03;23.32;100716.97;10523079;23;20708;-85
2022/04/02 17:25:05;;;;;;;2.10;1.00;;;;;;;9.06;22.63;100720.22;10354781;28;20324;-85
2022/04/02 17:30:18;;;;;;;3.90;1.03;;;;;;;9.28;22.55;100725.75;10340144;28;20272;-84
2022/04/02 17:35:22;;;;;;;1.00;0.77;;;;;;;9.99;21.90;100717.75;10351686;28;20279;-81
2022/04/02 17:40:31;;;;;;;3.07;0.63;;;;;;;7.44;24.37;100744.31;10352785;28;20190;-83
2022/04/02 17:45:36;;;;;;;1.80;1.00;;;;;;;8.51;23.63;100733.97;10350786;28;20236;-84
2022/04/02 17:51:06;;;;;;;1.13;0.70;;;;;;;8.84;23.30;100742.91;10366818;28;20571;-84
2022/04/02 17:56:10;;;;;;;1.43;1.23;;;;;;;7.73;24.53;100758.84;10330357;28;20598;-84
2022/04/02 18:01:34;;;;;;;1.00;0.80;;;;;;;7.70;25.02;100770.69;10355289;28;20247;-83
2022/04/02 18:06:45;;;;;;;1.40;1.27;;;;;;;8.38;24.79;100774.34;10333445;28;20601;-84
2022/04/02 18:11:48;;;;;;;2.60;2.20;;;;;;;7.86;24.51;100782.44;10378985;28;20213;-83
2022/04/02 18:16:50;;;;;;;1.10;1.00;;;;;;;8.25;25.17;100790.19;10327319;28;20956;-83
2022/04/02 18:21:52;;;;;;;1.30;1.20;;;;;;;7.64;25.57;100804.88;10312961;28;20226;-83
2022/04/02 18:26:55;;;;;;;2.00;1.10;;;;;;;8.49;24.44;100799.09;10339744;28;20291;-86
2022/04/02 18:31:57;;;;;;;2.57;2.10;;;;;;;8.01;24.89;100803.78;10352390;28;20257;-85
2022/04/02 18:37:00;;;;;;;2.63;1.70;;;;;;;8.94;24.07;100804.63;10331413;28;20284;-85
2022/04/02 18:42:03;;;;;;;1.90;1.60;;;;;;;8.28;24.72;100810.06;10329016;28;20292;-85
2022/04/02 18:47:05;;;;;;;1.53;1.03;;;;;;;8.50;24.62;100817.69;10341532;28;20210;-87
2022/04/02 18:52:08;;;;;;;5.53;4.27;;;;;;;8.99;23.75;100822.25;10327852;28;20332;-83
2022/04/02 18:57:10;;;;;;;1.83;1.73;;;;;;;8.67;24.37;100831.84;10331249;28;20252;-84
2022/04/02 19:02:13;;;;;;;3.37;2.30;;;;;;;8.24;24.75;100840.06;10328277;28;20224;-85
2022/04/02 19:07:16;;;;;;;2.50;1.97;;;;;;;8.19;24.74;100850.59;10329930;28;20228;-86
2022/04/02 19:12:18;;;;;;;2.30;1.50;;;;;;;8.48;25.15;100847.31;10331337;28;20276;-86
2022/04/02 19:17:21;;;;;;;2.00;1.80;;;;;;;7.97;25.21;100859.03;10313777;28;20268;-86
2022/04/02 19:22:23;;;;;;;1.53;1.40;;;;;;;7.94;25.35;100868.94;10349678;28;20222;-85
2022/04/02 19:27:27;;;;;;;1.93;1.70;;;;;;;7.94;25.13;100872.59;10323765;28;20269;-87
2022/04/02 19:32:29;;;;;;;4.23;2.77;;;;;;;7.79;25.75;100878.59;10334843;28;20311;-83
2022/04/02 19:37:32;;;;;;;2.13;1.93;;;;;;;7.15;26.00;100877.69;10332199;28;20206;-84
2022/04/02 19:42:35;;;;;;;2.93;1.70;;;;;;;7.38;25.71;100889.03;10340543;28;20210;-85
2022/04/02 19:47:37;;;;;;;2.83;1.70;;;;;;;6.98;25.87;100897.13;10344045;28;20259;-86
2022/04/02 19:52:39;;;;;;;2.10;1.90;;;;;;;7.47;26.26;100896.44;10347576;28;20562;-83
2022/04/02 19:57:42;;;;;;;2.80;1.53;;;;;;;7.76;25.09;100898.91;10352111;28;20213;-84
2022/04/02 20:02:44;;;;;;;2.60;1.67;;;;;;;7.64;25.66;100909.84;10356690;28;20206;-86
2022/04/02 20:07:47;;;;;;;2.03;1.80;;;;;;;7.25;26.50;100913.19;10339560;28;20210;-85
2022/04/02 20:12:49;;;;;;;3.53;1.67;;;;;;;7.98;25.86;100908.56;10357388;28;20574;-85
2022/04/02 20:17:53;;;;;;;4.30;2.60;;;;;;;6.92;26.28;100917.25;10341989;28;20218;-83
2022/04/02 20:22:56;;;;;;;4.57;2.67;;;;;;;7.29;26.01;100919.03;10337239;28;20229;-84
2022/04/02 20:28:01;;;;;;;3.13;1.80;;;;;;;7.37;25.60;100929.56;10340670;28;20280;-85
2022/04/02 20:33:04;;;;;;;2.60;1.80;;;;;;;6.60;26.94;100932.94;10340826;28;20226;-84
2022/04/02 20:38:07;;;;;;;3.07;1.77;;;;;;;6.39;26.99;100937.22;10341334;28;20225;-83
2022/04/02 20:43:09;;;;;;;2.30;1.60;;;;;;;7.61;25.88;100935.81;10338092;28;20225;-84
2022/04/02 20:48:11;;;;;;;2.93;1.60;;;;;;;6.28;27.33;100953.41;10339226;28;20260;-85
2022/04/02 20:53:14;;;;;;;4.07;1.57;;;;;;;7.28;26.17;100940.72;10333992;28;20226;-85
2022/04/02 20:58:17;;;;;;;3.20;1.40;;;;;;;6.67;27.15;100955.03;10326274;28;20579;-85
2022/04/02 21:03:20;;;;;;;2.47;1.60;;;;;;;7.80;26.11;100950.63;10329990;28;20194;-83
2022/04/02 21:08:23;;;;;;;2.67;1.30;;;;;;;7.14;26.33;100954.75;10302486;28;20257;-84
2022/04/02 21:13:25;;;;;;;2.03;1.53;;;;;;;7.73;26.23;100955.84;10336404;28;20339;-83
2022/04/02 21:18:29;;;;;;;1.30;1.20;;;;;;;7.11;26.58;100969.41;10345125;28;20273;-81
2022/04/02 21:23:33;;;;;;;2.67;1.17;;;;;;;7.24;26.42;100971.41;10325307;28;20299;-83
2022/04/02 21:28:35;;;;;;;4.10;1.33;;;;;;;6.85;27.33;100976.66;10336033;28;20242;-82
2022/04/02 21:33:39;;;;;;;2.57;1.20;;;;;;;7.32;26.31;100983.13;10312291;28;20885;-82
2022/04/02 21:38:43;;;;;;;2.57;1.30;;;;;;;7.45;26.77;100987.91;10339464;28;20233;-84
2022/04/02 21:43:45;;;;;;;2.07;1.47;;;;;;;7.45;25.66;100983.13;10308857;28;20229;-84
2022/04/02 21:48:48;;;;;;;2.23;1.63;;;;;;;7.01;26.73;100992.09;10331158;28;20233;-84
2022/04/02 21:53:50;;;;;;;1.50;1.33;;;;;;;7.02;26.99;100990.97;10329976;28;20292;-82
2022/04/02 21:58:52;;;;;;;3.17;1.43;;;;;;;7.20;27.16;100998.53;10326269;28;20229;-81
2022/04/02 22:03:55;;;;;;;2.37;1.20;;;;;;;6.48;28.05;101000.81;10330024;28;20559;-82
2022/04/02 22:08:57;;;;;;;1.37;1.27;;;;;;;6.83;28.68;101004.25;10313067;28;20237;-84
2022/04/02 22:13:59;;;;;;;3.13;1.87;;;;;;;6.96;28.10;101003.47;10329418;28;20662;-83
2022/04/02 22:19:04;;;;;;;2.87;1.60;;;;;;;6.50;28.64;101015.41;10345224;28;20308;-83
2022/04/02 22:24:06;;;;;;;1.83;1.70;;;;;;;6.64;29.02;101011.84;10344716;28;20618;-83
2022/04/02 22:29:11;;;;;;;1.90;1.13;;;;;;;6.85;28.53;101013.19;10347113;28;20283;-84
2022/04/02 22:34:16;;;;;;;1.77;1.67;;;;;;;6.78;28.50;101018.38;10338128;28;20279;-83
2022/04/02 22:39:19;;;;;;;2.90;1.80;;;;;;;7.08;28.73;101020.69;10326645;28;20678;-83
2022/04/02 22:44:21;;;;;;;1.57;1.40;;;;;;;7.18;28.57;101025.28;10326175;28;20554;-82
2022/04/02 22:49:23;;;;;;;3.20;2.30;;;;;;;7.08;28.83;101025.47;10341080;28;20225;-81
2022/04/02 22:54:25;;;;;;;5.00;2.90;;;;;;;7.15;28.98;101023.91;10326813;28;20311;-81
2022/04/02 22:59:27;;;;;;;2.87;2.40;;;;;;;6.68;29.57;101032.56;10326741;28;20287;-83
2022/04/02 23:04:30;;;;;;;2.90;2.60;;;;;;;7.07;29.63;101035.03;10326887;28;20238;-83
2022/04/02 23:09:32;;;;;;;4.07;2.97;;;;;;;7.10;28.97;101035.25;10327411;28;20287;-81
2022/04/02 23:14:35;;;;;;;4.67;3.87;;;;;;;6.90;29.01;101032.78;10305300;28;20850;-84
2022/04/02 23:19:37;;;;;;;3.70;3.40;;;;;;;7.04;29.37;101032.84;10332555;28;20261;-85
2022/04/02 23:24:39;;;;;;;4.77;2.70;;;;;;;7.07;29.16;101033.06;10358070;28;20677;-85
2022/04/02 23:29:41;;;;;;;3.33;2.53;;;;;;;7.09;29.19;101036.41;10338207;28;20296;-85
2022/04/02 23:34:44;;;;;;;3.43;2.80;;;;;;;7.10;29.19;101035.25;10343090;28;20883;-84
2022/04/02 23:39:48;;;;;;;5.43;3.30;;;;;;;7.33;28.78;101041.88;10340897;28;20284;-84
2022/04/02 23:44:51;;;;;;;4.27;2.63;;;;;;;6.59;29.96;101043.63;10335315;28;20237;-85
2022/04/02 23:49:53;;;;;;;2.93;2.13;;;;;;;7.18;29.12;101044.97;10362603;28;20620;-83
2022/04/02 23:54:55;;;;;;;2.90;1.90;;;;;;;6.79;28.97;101036.91;10324847;28;20692;-83